sensor_id;sensor_type;location;lat;lon;timestamp;pressure;altitude;pressure_sealevel;temperature;humidity
38191;BME280;25191;47.510;19.124;2023-04-06T00:04:25;100516.69;;;21.44;42.59
38191;BME280;25191;47.510;19.124;2023-04-06T00:14:26;100500.13;;;21.42;42.35
38191;BME280;25191;47.510;19.124;2023-04-06T00:24:27;100498.47;;;21.41;42.67
38191;BME280;25191;47.510;19.124;2023-04-06T00:34:27;100486.34;;;21.38;42.56
38191;BME280;25191;47.510;19.124;2023-04-06T00:44:29;100487.44;;;21.36;42.52
38191;BME280;25191;47.510;19.124;2023-04-06T00:54:29;100480.75;;;21.32;42.34
38191;BME280;25191;47.510;19.124;2023-04-06T01:04:31;100490.41;;;21.31;42.27
38191;BME280;25191;47.510;19.124;2023-04-06T01:14:32;100487.91;;;21.30;42.23
38191;BME280;25191;47.510;19.124;2023-04-06T01:24:34;100488.88;;;21.28;42.31
38191;BME280;25191;47.510;19.124;2023-04-06T01:34:40;100485.75;;;21.23;42.22
38191;BME280;25191;47.510;19.124;2023-04-06T01:44:41;100489.47;;;21.21;42.28
38191;BME280;25191;47.510;19.124;2023-04-06T01:54:43;100473.78;;;21.19;42.66
38191;BME280;25191;47.510;19.124;2023-04-06T02:04:43;100473.06;;;21.17;43.03
38191;BME280;25191;47.510;19.124;2023-04-06T02:14:43;100468.72;;;21.16;43.01
38191;BME280;25191;47.510;19.124;2023-04-06T02:24:45;100456.53;;;21.15;42.79
38191;BME280;25191;47.510;19.124;2023-04-06T02:34:46;100454.97;;;21.13;42.78
38191;BME280;25191;47.510;19.124;2023-04-06T02:44:47;100446.38;;;21.10;42.45
38191;BME280;25191;47.510;19.124;2023-04-06T02:54:48;100448.38;;;21.07;42.60
38191;BME280;25191;47.510;19.124;2023-04-06T03:04:51;100437.84;;;21.07;42.91
38191;BME280;25191;47.510;19.124;2023-04-06T03:14:52;100445.84;;;21.05;42.53
38191;BME280;25191;47.510;19.124;2023-04-06T03:24:53;100444.41;;;21.01;42.80
38191;BME280;25191;47.510;19.124;2023-04-06T03:34:57;100448.84;;;21.01;43.02
38191;BME280;25191;47.510;19.124;2023-04-06T03:44:58;100446.56;;;20.96;42.80
38191;BME280;25191;47.510;19.124;2023-04-06T03:54:59;100445.84;;;20.94;42.55
38191;BME280;25191;47.510;19.124;2023-04-06T04:04:59;100437.19;;;20.92;42.68
38191;BME280;25191;47.510;19.124;2023-04-06T04:14:59;100428.97;;;20.97;42.44
38191;BME280;25191;47.510;19.124;2023-04-06T04:25:00;100424.78;;;21.05;42.59
38191;BME280;25191;47.510;19.124;2023-04-06T04:35:01;100419.66;;;21.15;42.90
38191;BME280;25191;47.510;19.124;2023-04-06T04:45:01;100412.97;;;21.22;44.00
38191;BME280;25191;47.510;19.124;2023-04-06T04:55:03;100418.34;;;21.21;41.24
38191;BME280;25191;47.510;19.124;2023-04-06T05:05:04;100414.66;;;21.23;40.46
38191;BME280;25191;47.510;19.124;2023-04-06T05:15:05;100391.31;;;21.30;42.10
38191;BME280;25191;47.510;19.124;2023-04-06T05:25:06;100389.16;;;21.35;42.07
38191;BME280;25191;47.510;19.124;2023-04-06T05:35:07;100379.81;;;21.42;42.53
38191;BME280;25191;47.510;19.124;2023-04-06T05:45:10;100357.41;;;21.48;42.43
38191;BME280;25191;47.510;19.124;2023-04-06T05:55:11;100355.38;;;21.52;41.58
38191;BME280;25191;47.510;19.124;2023-04-06T06:05:11;100361.03;;;21.58;42.75
38191;BME280;25191;47.510;19.124;2023-04-06T06:15:12;100347.22;;;21.66;42.80
38191;BME280;25191;47.510;19.124;2023-04-06T06:25:13;100339.91;;;21.70;42.80
38191;BME280;25191;47.510;19.124;2023-04-06T06:35:20;100330.56;;;21.77;42.29
38191;BME280;25191;47.510;19.124;2023-04-06T06:45:20;100325.75;;;21.82;42.83
38191;BME280;25191;47.510;19.124;2023-04-06T06:55:22;100318.44;;;21.86;42.40
38191;BME280;25191;47.510;19.124;2023-04-06T07:05:23;100320.81;;;21.89;42.13
38191;BME280;25191;47.510;19.124;2023-04-06T07:15:24;100324.56;;;21.86;38.96
38191;BME280;25191;47.510;19.124;2023-04-06T07:25:25;100314.25;;;21.83;39.36
38191;BME280;25191;47.510;19.124;2023-04-06T07:35:26;100307.78;;;21.87;40.25
38191;BME280;25191;47.510;19.124;2023-04-06T07:45:27;100301.41;;;21.90;40.64
38191;BME280;25191;47.510;19.124;2023-04-06T07:55:27;100302.09;;;21.92;40.50
38191;BME280;25191;47.510;19.124;2023-04-06T08:05:28;100299.22;;;21.95;41.06
38191;BME280;25191;47.510;19.124;2023-04-06T08:15:28;100293.81;;;21.97;40.82
38191;BME280;25191;47.510;19.124;2023-04-06T08:25:29;100284.97;;;21.98;41.22
38191;BME280;25191;47.510;19.124;2023-04-06T08:35:31;100276.91;;;21.99;41.51
38191;BME280;25191;47.510;19.124;2023-04-06T08:45:32;100270.81;;;21.99;41.44
38191;BME280;25191;47.510;19.124;2023-04-06T08:55:33;100275.94;;;22.00;41.14
38191;BME280;25191;47.510;19.124;2023-04-06T09:05:34;100271.53;;;22.01;41.67
38191;BME280;25191;47.510;19.124;2023-04-06T09:15:35;100264.81;;;21.97;39.10
38191;BME280;25191;47.510;19.124;2023-04-06T09:25:35;100260.28;;;21.99;40.67
38191;BME280;25191;47.510;19.124;2023-04-06T09:35:37;100252.22;;;22.00;40.53
38191;BME280;25191;47.510;19.124;2023-04-06T09:45:43;100251.41;;;22.00;40.55
38191;BME280;25191;47.510;19.124;2023-04-06T09:55:45;100242.53;;;22.01;40.85
38191;BME280;25191;47.510;19.124;2023-04-06T10:05:55;100237.25;;;22.01;40.74
38191;BME280;25191;47.510;19.124;2023-04-06T10:16:00;100224.09;;;22.01;40.19
38191;BME280;25191;47.510;19.124;2023-04-06T10:26:03;100216.03;;;22.02;40.54
38191;BME280;25191;47.510;19.124;2023-04-06T10:36:36;100204.38;;;22.05;41.27
38191;BME280;25191;47.510;19.124;2023-04-06T10:46:37;100204.84;;;22.10;41.33
38191;BME280;25191;47.510;19.124;2023-04-06T10:56:37;100199.41;;;22.12;41.39
38191;BME280;25191;47.510;19.124;2023-04-06T11:06:40;100178.22;;;22.13;41.31
38191;BME280;25191;47.510;19.124;2023-04-06T11:16:40;100175.44;;;22.15;41.38
38191;BME280;25191;47.510;19.124;2023-04-06T11:26:46;100173.53;;;22.17;40.85
38191;BME280;25191;47.510;19.124;2023-04-06T11:36:54;100170.75;;;22.18;42.29
38191;BME280;25191;47.510;19.124;2023-04-06T11:46:56;100165.47;;;22.18;42.29
38191;BME280;25191;47.510;19.124;2023-04-06T11:56:57;100149.78;;;22.17;42.06
38191;BME280;25191;47.510;19.124;2023-04-06T12:06:59;100142.13;;;22.14;42.06
38191;BME280;25191;47.510;19.124;2023-04-06T12:16:59;100137.00;;;22.12;41.59
38191;BME280;25191;47.510;19.124;2023-04-06T12:27:00;100145.84;;;22.11;41.51
38191;BME280;25191;47.510;19.124;2023-04-06T12:37:01;100136.03;;;22.13;41.72
38191;BME280;25191;47.510;19.124;2023-04-06T12:47:02;100131.56;;;22.14;41.37
38191;BME280;25191;47.510;19.124;2023-04-06T12:57:02;100119.50;;;22.11;41.49
38191;BME280;25191;47.510;19.124;2023-04-06T13:07:03;100112.53;;;22.10;41.24
38191;BME280;25191;47.510;19.124;2023-04-06T13:17:03;100121.31;;;22.11;40.68
38191;BME280;25191;47.510;19.124;2023-04-06T13:27:04;100119.06;;;22.06;40.01
38191;BME280;25191;47.510;19.124;2023-04-06T13:37:04;100106.13;;;22.03;40.45
38191;BME280;25191;47.510;19.124;2023-04-06T13:47:05;100115.69;;;22.04;40.72
38191;BME280;25191;47.510;19.124;2023-04-06T13:57:06;100096.38;;;21.94;38.14
38191;BME280;25191;47.510;19.124;2023-04-06T14:07:07;100091.63;;;21.87;36.86
38191;BME280;25191;47.510;19.124;2023-04-06T14:17:08;100096.91;;;21.87;37.97
38191;BME280;25191;47.510;19.124;2023-04-06T14:27:11;100105.63;;;21.88;39.02
38191;BME280;25191;47.510;19.124;2023-04-06T14:37:12;100098.69;;;21.87;39.16
38191;BME280;25191;47.510;19.124;2023-04-06T14:47:14;100095.34;;;21.85;39.73
38191;BME280;25191;47.510;19.124;2023-04-06T14:57:20;100105.06;;;21.84;39.96
38191;BME280;25191;47.510;19.124;2023-04-06T15:07:20;100120.16;;;21.82;40.12
38191;BME280;25191;47.510;19.124;2023-04-06T15:17:21;100128.19;;;21.81;40.46
38191;BME280;25191;47.510;19.124;2023-04-06T15:27:21;100136.25;;;21.79;40.72
38191;BME280;25191;47.510;19.124;2023-04-06T15:37:24;100138.16;;;21.77;40.59
38191;BME280;25191;47.510;19.124;2023-04-06T15:47:25;100141.66;;;21.78;40.65
38191;BME280;25191;47.510;19.124;2023-04-06T16:17:26;100144.09;;;21.69;41.06
38191;BME280;25191;47.510;19.124;2023-04-06T16:27:27;100146.72;;;21.69;42.04
38191;BME280;25191;47.510;19.124;2023-04-06T16:37:27;100152.94;;;21.68;41.90
38191;BME280;25191;47.510;19.124;2023-04-06T16:47:30;100158.22;;;21.68;42.52
38191;BME280;25191;47.510;19.124;2023-04-06T16:57:30;100162.53;;;21.69;43.15
38191;BME280;25191;47.510;19.124;2023-04-06T17:07:31;100178.66;;;21.76;43.92
38191;BME280;25191;47.510;19.124;2023-04-06T17:17:33;100177.84;;;21.75;43.81
38191;BME280;25191;47.510;19.124;2023-04-06T17:27:33;100184.66;;;21.78;43.75
38191;BME280;25191;47.510;19.124;2023-04-06T17:37:34;100196.16;;;21.77;44.02
38191;BME280;25191;47.510;19.124;2023-04-06T17:47:35;100207.53;;;21.78;43.79
38191;BME280;25191;47.510;19.124;2023-04-06T17:57:35;100209.19;;;21.79;43.73
38191;BME280;25191;47.510;19.124;2023-04-06T18:07:36;100225.00;;;21.79;43.78
38191;BME280;25191;47.510;19.124;2023-04-06T18:17:37;100218.63;;;21.81;43.18
38191;BME280;25191;47.510;19.124;2023-04-06T18:27:37;100224.50;;;21.85;43.54
38191;BME280;25191;47.510;19.124;2023-04-06T18:37:38;100230.41;;;21.77;41.72
38191;BME280;25191;47.510;19.124;2023-04-06T18:47:38;100228.28;;;21.71;42.03
38191;BME280;25191;47.510;19.124;2023-04-06T18:57:38;100218.84;;;21.68;42.19
38191;BME280;25191;47.510;19.124;2023-04-06T19:07:39;100217.28;;;21.66;42.40
38191;BME280;25191;47.510;19.124;2023-04-06T19:17:41;100227.38;;;21.61;42.33
38191;BME280;25191;47.510;19.124;2023-04-06T19:27:42;100219.81;;;21.56;42.63
38191;BME280;25191;47.510;19.124;2023-04-06T19:37:43;100218.25;;;21.53;42.66
38191;BME280;25191;47.510;19.124;2023-04-06T19:47:44;100206.41;;;21.48;42.65
38191;BME280;25191;47.510;19.124;2023-04-06T19:57:44;100207.50;;;21.45;42.42
38191;BME280;25191;47.510;19.124;2023-04-06T20:07:45;100206.78;;;21.43;42.66
38191;BME280;25191;47.510;19.124;2023-04-06T20:17:46;100209.78;;;21.38;42.83
38191;BME280;25191;47.510;19.124;2023-04-06T20:27:47;100207.41;;;21.35;42.66
38191;BME280;25191;47.510;19.124;2023-04-06T20:37:47;100198.94;;;21.32;42.51
38191;BME280;25191;47.510;19.124;2023-04-06T20:47:50;100191.16;;;21.30;42.66
38191;BME280;25191;47.510;19.124;2023-04-06T20:57:51;100190.31;;;21.30;42.55
38191;BME280;25191;47.510;19.124;2023-04-06T21:07:51;100190.69;;;21.25;42.56
38191;BME280;25191;47.510;19.124;2023-04-06T21:17:52;100180.28;;;21.23;42.76
38191;BME280;25191;47.510;19.124;2023-04-06T21:27:52;100188.31;;;21.22;42.68
38191;BME280;25191;47.510;19.124;2023-04-06T21:37:55;100182.44;;;21.18;42.42
38191;BME280;25191;47.510;19.124;2023-04-06T21:47:58;100173.69;;;21.18;42.63
38191;BME280;25191;47.510;19.124;2023-04-06T21:57:59;100158.16;;;21.15;42.50
38191;BME280;25191;47.510;19.124;2023-04-06T22:08:00;100133.75;;;21.13;42.83
38191;BME280;25191;47.510;19.124;2023-04-06T22:18:01;100125.84;;;21.13;42.88
38191;BME280;25191;47.510;19.124;2023-04-06T22:28:01;100131.25;;;21.11;42.69
38191;BME280;25191;47.510;19.124;2023-04-06T22:38:09;100128.75;;;21.09;42.82
38191;BME280;25191;47.510;19.124;2023-04-06T22:48:09;100126.47;;;21.05;42.83
38191;BME280;25191;47.510;19.124;2023-04-06T22:58:12;100119.41;;;21.05;42.63
38191;BME280;25191;47.510;19.124;2023-04-06T23:08:13;100135.34;;;21.04;42.83
38191;BME280;25191;47.510;19.124;2023-04-06T23:18:13;100118.94;;;21.00;42.73
38191;BME280;25191;47.510;19.124;2023-04-06T23:28:14;100114.53;;;21.01;42.49
38191;BME280;25191;47.510;19.124;2023-04-06T23:38:14;100107.59;;;21.00;42.67
38191;BME280;25191;47.510;19.124;2023-04-06T23:48:15;100112.28;;;20.96;42.59
38191;BME280;25191;47.510;19.124;2023-04-06T23:58:16;100096.47;;;20.96;42.30
